Time;durP1;ratioP1;P1;durP2;ratioP2;P2;SDS_P1;SDS_P2;PMS_P1;PMS_P2;Temp;Humidity;BMP_temperature;BMP_pressure;BME280_temperature;BME280_humidity;BME280_pressure;Samples;Min_cycle;Max_cycle;Signal;HPM_P1;HPM_P2
2022/05/02 00:02:44;;;;;;;21.15;9.32;;;;;;;9.88;59.87;99579.00;8515461;27;20416;-72
2022/05/02 00:06:45;;;;;;;23.15;8.80;;;;;;;9.70;60.28;99584.09;8504230;27;20055;-73
2022/05/02 00:10:45;;;;;;;28.52;9.32;;;;;;;9.56;60.67;99583.22;8500525;27;20050;-72
2022/05/02 00:14:47;;;;;;;24.27;9.57;;;;;;;9.41;61.28;99569.94;8523274;27;20061;-72
2022/05/02 00:18:47;;;;;;;17.17;9.18;;;;;;;9.29;61.80;99577.66;8508176;27;20051;-72
2022/05/02 00:22:48;;;;;;;21.08;9.68;;;;;;;9.15;62.29;99571.34;8450397;28;20575;-71
2022/05/02 00:26:49;;;;;;;20.38;9.57;;;;;;;9.05;62.54;99572.25;8424116;28;20043;-72
2022/05/02 00:30:50;;;;;;;23.92;9.55;;;;;;;8.94;62.86;99564.56;8446758;28;20048;-72
2022/05/02 00:34:51;;;;;;;25.10;9.80;;;;;;;8.77;63.24;99565.84;8424047;28;20051;-72
2022/05/02 00:38:52;;;;;;;24.52;10.05;;;;;;;8.71;63.71;99572.38;8427518;28;20125;-72
2022/05/02 00:42:53;;;;;;;23.23;10.38;;;;;;;8.60;63.88;99568.19;8446647;28;20121;-72
2022/05/02 00:46:54;;;;;;;26.75;10.35;;;;;;;8.62;64.69;99568.69;8423906;28;20048;-72
2022/05/02 00:50:55;;;;;;;23.42;11.10;;;;;;;8.55;64.64;99562.84;8443165;28;20523;-72
2022/05/02 00:55:00;;;;;;;24.13;11.27;;;;;;;8.54;64.27;99566.63;8497468;27;20054;-72
2022/05/02 00:59:01;;;;;;;25.85;11.60;;;;;;;8.54;64.10;99558.53;8503441;27;20055;-72
2022/05/02 01:03:03;;;;;;;25.95;11.05;;;;;;;8.53;64.21;99559.63;8522893;27;20047;-72
2022/05/02 01:07:19;;;;;;;24.58;11.15;;;;;;;8.56;64.20;99559.06;8476716;27;20141;-72
2022/05/02 01:11:20;;;;;;;21.83;11.13;;;;;;;8.51;64.32;99564.50;8528570;27;20488;-72
2022/05/02 01:15:20;;;;;;;26.55;10.20;;;;;;;8.39;65.12;99558.69;8457621;27;20078;-72
2022/05/02 01:19:21;;;;;;;27.50;9.90;;;;;;;8.27;65.47;99560.91;8494391;27;20067;-71
2022/05/02 01:23:22;;;;;;;24.00;10.82;;;;;;;8.17;65.35;99550.22;8496002;27;20066;-72
2022/05/02 01:27:23;;;;;;;22.17;10.90;;;;;;;8.13;65.36;99549.19;8512133;27;20058;-72
2022/05/02 01:31:25;;;;;;;28.40;12.07;;;;;;;8.05;65.35;99548.72;8520675;27;20126;-72
2022/05/02 01:35:26;;;;;;;28.48;11.95;;;;;;;7.97;65.89;99541.25;8516649;27;20043;-72
2022/05/02 01:39:28;;;;;;;29.60;11.98;;;;;;;7.96;65.93;99544.22;8449951;27;20057;-71
2022/05/02 01:43:31;;;;;;;25.38;12.50;;;;;;;7.90;66.09;99540.75;8501038;27;20043;-72
2022/05/02 01:47:31;;;;;;;23.65;12.15;;;;;;;7.83;65.97;99551.03;8528916;27;20138;-72
2022/05/02 01:51:33;;;;;;;21.40;11.05;;;;;;;7.78;66.31;99537.63;8529012;27;20039;-72
2022/05/02 01:55:33;;;;;;;23.75;11.52;;;;;;;7.78;66.74;99542.19;8515635;27;20035;-72
2022/05/02 01:59:34;;;;;;;22.10;11.25;;;;;;;7.72;67.51;99527.97;8503632;27;20439;-72
2022/05/02 02:03:35;;;;;;;24.08;11.50;;;;;;;7.62;67.29;99533.41;8502379;27;20146;-72
2022/05/02 02:07:36;;;;;;;24.20;12.15;;;;;;;7.56;67.72;99539.94;8494357;27;20100;-72
2022/05/02 02:11:37;;;;;;;21.00;11.15;;;;;;;7.39;68.59;99552.91;8446903;27;20564;-72
2022/05/02 02:15:38;;;;;;;26.25;10.57;;;;;;;7.15;68.86;99550.06;8494770;27;20424;-72
2022/05/02 02:19:39;;;;;;;22.92;11.30;;;;;;;7.09;68.93;99541.22;8500513;27;20078;-71
2022/05/02 02:23:42;;;;;;;22.65;11.95;;;;;;;7.07;69.72;99538.03;8495927;27;20054;-72
2022/05/02 02:27:42;;;;;;;31.90;12.23;;;;;;;7.12;71.21;99529.13;8517633;27;20367;-71
2022/05/02 02:31:43;;;;;;;31.80;14.02;;;;;;;7.15;71.26;99529.38;8518699;27;20146;-71
2022/05/02 02:35:44;;;;;;;31.02;13.13;;;;;;;7.11;70.89;99533.69;8533604;27;20119;-72
2022/05/02 02:39:46;;;;;;;27.92;12.68;;;;;;;7.08;70.48;99528.91;8519655;27;20417;-72
2022/05/02 02:43:46;;;;;;;35.90;14.13;;;;;;;6.95;70.42;99531.34;8449353;27;20404;-71
2022/05/02 02:47:48;;;;;;;32.13;12.95;;;;;;;6.84;70.59;99533.25;8463336;27;20045;-72
2022/05/02 02:51:48;;;;;;;24.48;12.30;;;;;;;6.74;70.85;99527.94;8499073;27;20059;-72
2022/05/02 02:55:49;;;;;;;25.45;12.90;;;;;;;6.69;70.80;99527.94;8506954;27;20054;-72
2022/05/02 02:59:51;;;;;;;24.73;12.05;;;;;;;6.52;71.17;99535.50;8534309;27;20103;-72
2022/05/02 03:03:52;;;;;;;26.50;13.02;;;;;;;6.45;71.25;99529.63;8528554;27;20440;-72
2022/05/02 03:07:53;;;;;;;29.63;13.25;;;;;;;6.38;71.29;99539.81;8473452;27;20047;-72
2022/05/02 03:11:54;;;;;;;29.30;13.43;;;;;;;6.30;71.45;99539.28;8476267;27;20051;-73
2022/05/02 03:15:55;;;;;;;22.08;12.35;;;;;;;6.24;71.63;99534.19;8511409;27;20078;-72
2022/05/02 03:19:56;;;;;;;27.75;12.35;;;;;;;6.16;71.81;99532.88;8498570;27;20092;-72
2022/05/02 03:23:57;;;;;;;30.10;13.00;;;;;;;6.19;71.91;99526.13;8511024;27;20050;-72
2022/05/02 03:27:58;;;;;;;25.33;12.80;;;;;;;6.14;71.89;99535.00;8516058;27;20476;-72
2022/05/02 03:31:59;;;;;;;29.25;13.05;;;;;;;6.14;72.23;99535.00;8505827;27;20138;-72
2022/05/02 03:36:00;;;;;;;29.02;13.63;;;;;;;6.06;72.12;99538.22;8508261;27;20103;-72
2022/05/02 03:40:01;;;;;;;27.05;13.18;;;;;;;6.06;72.05;99542.78;8477888;27;20050;-72
2022/05/02 03:44:02;;;;;;;30.88;14.43;;;;;;;6.13;72.22;99533.41;8516677;27;20057;-72
2022/05/02 03:48:04;;;;;;;33.53;14.77;;;;;;;6.21;72.10;99540.91;8509127;27;20067;-72
2022/05/02 03:52:05;;;;;;;27.85;13.27;;;;;;;6.21;72.72;99534.72;8528143;27;20054;-72
2022/05/02 03:56:06;;;;;;;29.40;14.00;;;;;;;6.21;72.91;99546.28;8474526;27;20043;-72
2022/05/02 04:00:08;;;;;;;31.70;16.42;;;;;;;6.25;72.90;99541.97;8515897;27;20043;-72
2022/05/02 04:04:09;;;;;;;26.92;14.23;;;;;;;6.36;72.81;99537.41;8524552;27;20062;-72
2022/05/02 04:08:10;;;;;;;33.30;14.77;;;;;;;6.47;73.09;99538.19;8515624;27;20045;-72
2022/05/02 04:12:11;;;;;;;29.50;14.95;;;;;;;6.58;72.81;99539.78;8498017;27;20039;-72
2022/05/02 04:16:13;;;;;;;29.23;14.55;;;;;;;6.62;73.11;99540.84;8502429;27;20035;-72
2022/05/02 04:20:14;;;;;;;32.95;16.45;;;;;;;6.67;72.85;99538.13;8506284;27;20035;-71
2022/05/02 04:24:17;;;;;;;30.27;16.13;;;;;;;6.76;72.76;99537.34;8500829;27;20049;-72
2022/05/02 04:28:18;;;;;;;30.27;13.68;;;;;;;6.82;72.72;99545.38;8494775;27;20047;-73
2022/05/02 04:32:19;;;;;;;36.25;15.23;;;;;;;6.88;72.91;99537.00;8498146;27;20047;-72
2022/05/02 04:36:20;;;;;;;37.00;17.15;;;;;;;7.09;74.04;99541.22;8499606;27;20049;-72
2022/05/02 04:40:21;;;;;;;30.92;14.88;;;;;;;7.29;73.19;99539.53;8503407;27;20051;-72
2022/05/02 04:44:22;;;;;;;35.53;17.10;;;;;;;7.38;73.38;99543.25;8497085;27;20495;-72
2022/05/02 04:48:23;;;;;;;34.90;15.65;;;;;;;7.51;72.89;99550.69;8498991;27;20532;-72
2022/05/02 04:52:24;;;;;;;34.67;16.15;;;;;;;7.64;72.70;99550.09;8496713;27;20047;-72
2022/05/02 04:56:25;;;;;;;37.03;16.88;;;;;;;7.78;72.75;99545.69;8477553;27;20416;-72
2022/05/02 05:00:26;;;;;;;36.05;16.58;;;;;;;7.93;72.19;99540.19;8499362;27;20046;-72
2022/05/02 05:04:27;;;;;;;33.53;16.95;;;;;;;8.13;72.08;99538.44;8457844;27;20055;-72
2022/05/02 05:08:28;;;;;;;39.00;18.02;;;;;;;8.32;72.19;99536.69;8523013;27;20042;-72
2022/05/02 05:12:32;;;;;;;38.22;16.65;;;;;;;8.52;71.99;99539.16;8529458;27;20103;-72
2022/05/02 05:16:45;;;;;;;33.92;17.33;;;;;;;8.69;71.46;99536.84;8528946;27;20046;-72
2022/05/02 05:21:04;;;;;;;36.05;16.83;;;;;;;8.86;71.13;99547.97;8500247;27;20055;-72
2022/05/02 05:25:05;;;;;;;;;;;;;;;8.88;71.37;99545.78;8500331;27;20104;-72
2022/05/02 05:29:32;;;;;;;36.38;17.20;;;;;;;8.83;71.22;99543.16;8500174;27;20355;-72
2022/05/02 05:33:44;;;;;;;38.42;16.65;;;;;;;8.93;70.94;99546.84;8351250;28;20045;-73
2022/05/02 05:37:53;;;;;;;35.20;16.02;;;;;;;9.09;70.53;99534.78;8338870;28;20045;-72
2022/05/02 05:42:45;;;;;;;39.92;16.70;;;;;;;9.21;70.50;99537.84;8355996;28;20119;-72
2022/05/02 05:47:09;;;;;;;37.15;16.25;;;;;;;9.40;69.72;99541.41;8289768;28;20046;-72
2022/05/02 05:51:22;;;;;;;37.00;17.85;;;;;;;9.56;69.49;99548.19;8260582;28;20053;-72
2022/05/02 05:55:29;;;;;;;39.53;16.08;;;;;;;9.72;68.86;99538.78;8280735;28;20058;-72
2022/05/02 05:59:57;;;;;;;31.45;16.80;;;;;;;9.86;68.49;99543.44;8264106;28;20428;-72
2022/05/02 06:04:03;;;;;;;37.85;16.77;;;;;;;10.04;67.90;99556.91;8264136;28;20141;-72
2022/05/02 06:08:08;;;;;;;40.83;16.77;;;;;;;10.17;67.76;99563.47;8266025;28;20046;-72
2022/05/02 06:12:13;;;;;;;40.70;18.30;;;;;;;10.30;67.97;99560.03;8296158;28;20077;-72
2022/05/02 06:20:39;;;;;;;32.78;16.80;;;;;;;10.47;67.25;99549.44;8298397;28;20084;-72
2022/05/02 06:24:46;;;;;;;30.65;16.33;;;;;;;10.59;67.03;99547.06;8328594;28;20572;-72
2022/05/02 06:28:50;;;;;;;35.47;16.67;;;;;;;10.75;67.02;99560.31;8436603;28;20047;-72
2022/05/02 06:32:51;;;;;;;37.65;16.92;;;;;;;10.88;66.41;99549.53;8466262;28;20055;-72
2022/05/02 06:37:12;;;;;;;30.52;15.25;;;;;;;11.08;66.10;99553.72;8465975;28;20050;-73
2022/05/02 06:41:35;;;;;;;28.10;15.18;;;;;;;11.27;65.61;99557.09;8475024;27;20126;-72
2022/05/02 06:45:46;;;;;;;30.13;15.02;;;;;;;11.43;64.63;99561.09;8510208;27;20496;-73
2022/05/02 06:49:51;;;;;;;29.00;14.68;;;;;;;11.56;63.63;99558.66;8495892;27;20445;-72
2022/05/02 06:54:06;;;;;;;29.90;14.45;;;;;;;11.66;63.20;99558.44;8510364;27;20051;-72
2022/05/02 06:58:25;;;;;;;27.00;13.73;;;;;;;11.80;63.01;99565.44;8515068;27;20046;-72
2022/05/02 07:02:47;;;;;;;25.08;14.15;;;;;;;11.98;62.79;99560.97;8517188;27;20062;-73
2022/05/02 07:07:11;;;;;;;26.42;13.02;;;;;;;12.17;62.43;99569.72;8510179;27;20555;-75
2022/05/02 07:11:18;;;;;;;24.60;12.50;;;;;;;12.35;62.11;99575.25;8527316;27;20043;-73
2022/05/02 07:15:27;;;;;;;27.27;12.85;;;;;;;12.54;60.67;99578.56;8514328;27;20046;-73
2022/05/02 07:19:48;;;;;;;;;;;;;;;12.69;60.30;99570.03;8533158;27;20129;-72
2022/05/02 07:24:14;;;;;;;26.50;12.57;;;;;;;12.94;59.87;99566.66;8483854;27;19920;-73
2022/05/02 07:28:46;;;;;;;28.05;11.95;;;;;;;13.11;58.97;99569.44;8508671;27;20518;-73
2022/05/02 07:32:47;;;;;;;25.92;12.18;;;;;;;13.30;58.68;99558.34;8524168;27;20492;-73
2022/05/02 07:36:51;;;;;;;27.50;11.15;;;;;;;13.53;57.83;99567.19;8517788;27;20050;-73
2022/05/02 07:45:17;;;;;;;19.20;10.00;;;;;;;13.93;56.02;99565.94;8462473;27;20043;-73
2022/05/02 07:49:26;;;;;;;25.05;10.93;;;;;;;14.10;52.57;99558.91;8508270;27;20529;-73
2022/05/02 07:53:27;;;;;;;24.85;10.10;;;;;;;14.22;51.33;99556.34;8512715;27;20125;-73
2022/05/02 07:57:32;;;;;;;16.88;9.57;;;;;;;14.35;50.62;99560.78;8477440;27;20050;-73
2022/05/02 08:01:34;;;;;;;20.05;8.95;;;;;;;14.51;50.00;99564.63;8505552;27;20416;-73
2022/05/02 08:05:39;;;;;;;17.15;8.10;;;;;;;14.70;49.41;99567.75;8498498;27;20047;-73
2022/05/02 08:10:02;;;;;;;16.98;8.60;;;;;;;14.94;46.90;99572.66;8483302;27;20138;-75
2022/05/02 08:14:27;;;;;;;18.88;8.40;;;;;;;15.13;46.48;99569.53;8495119;27;20043;-73
2022/05/02 08:19:09;;;;;;;14.55;7.63;;;;;;;15.27;46.30;99559.22;8485924;27;20047;-73
2022/05/02 08:28:07;;;;;;;14.20;8.02;;;;;;;15.67;45.38;99567.00;8331260;28;20091;-73
2022/05/02 08:32:14;;;;;;;19.48;7.22;;;;;;;15.95;44.25;99562.63;8348164;28;20445;-73
2022/05/02 08:36:31;;;;;;;17.95;8.25;;;;;;;16.34;44.46;99562.09;8385567;28;20051;-73
2022/05/02 08:40:44;;;;;;;13.98;7.63;;;;;;;16.62;43.86;99547.91;8351685;28;20048;-72
2022/05/02 08:45:04;;;;;;;24.20;6.45;;;;;;;16.74;43.59;99556.91;8385026;28;20503;-72
2022/05/02 08:49:38;;;;;;;;;;;;;;;16.88;42.01;99551.13;8370614;28;20094;-72
2022/05/02 08:54:17;;;;;;;16.48;7.53;;;;;;;16.92;42.25;99546.59;8383312;28;19928;-72
2022/05/02 08:58:37;;;;;;;15.55;7.13;;;;;;;17.06;41.51;99547.06;8428290;27;20043;-72
2022/05/02 09:03:13;;;;;;;15.25;7.15;;;;;;;17.10;41.52;99553.44;8503972;27;20047;-73
2022/05/02 09:08:05;;;;;;;18.92;7.28;;;;;;;17.08;40.38;99550.22;8326295;28;20057;-72
2022/05/02 09:12:21;;;;;;;12.93;6.57;;;;;;;17.20;39.54;99539.31;8287890;28;20132;-72
2022/05/02 09:17:05;;;;;;;15.95;6.82;;;;;;;17.40;40.81;99536.78;8289348;28;20461;-72
2022/05/02 09:21:32;;;;;;;16.48;7.05;;;;;;;17.62;41.05;99536.34;8160206;29;20048;-72
2022/05/02 09:25:42;;;;;;;18.67;7.40;;;;;;;17.79;42.31;99524.34;8143111;29;20114;-72
2022/05/02 09:30:12;;;;;;;15.57;7.47;;;;;;;17.88;42.95;99523.06;8159054;29;20125;-73
2022/05/02 09:34:15;;;;;;;16.52;6.97;;;;;;;18.05;43.44;99522.78;8155363;29;20056;-74
2022/05/02 09:38:26;;;;;;;15.18;7.95;;;;;;;18.14;42.28;99520.69;8158874;29;20058;-74
2022/05/02 09:42:50;;;;;;;15.05;7.38;;;;;;;18.22;41.41;99516.22;8248721;28;20558;-74
2022/05/02 09:51:56;;;;;;;12.52;6.95;;;;;;;18.47;40.58;99511.41;8309709;28;20404;-73
2022/05/02 10:05:07;;;;;;;12.85;6.72;;;;;;;18.65;38.67;99512.69;8486690;27;20415;-74
2022/05/02 10:09:17;;;;;;;13.88;6.60;;;;;;;18.72;38.58;99510.13;8470471;27;20138;-74
2022/05/02 10:13:29;;;;;;;18.58;6.93;;;;;;;18.89;38.34;99507.03;8504520;27;20519;-74
2022/05/02 10:17:58;;;;;;;16.15;7.18;;;;;;;19.03;38.17;99497.59;8449968;27;20067;-74
2022/05/02 10:22:02;;;;;;;11.40;6.40;;;;;;;19.23;38.78;99482.81;8492542;27;20033;-74
2022/05/02 10:26:29;;;;;;;11.10;5.75;;;;;;;19.64;38.64;99487.66;8502452;27;20075;-74
2022/05/02 10:30:42;;;;;;;15.90;6.78;;;;;;;19.67;36.87;99470.47;8500438;27;20096;-74
2022/05/02 10:34:46;;;;;;;13.48;6.45;;;;;;;19.63;36.79;99469.63;8501046;27;20043;-73
2022/05/02 10:38:53;;;;;;;10.70;6.40;;;;;;;19.79;36.32;99466.81;8509214;27;20046;-74
2022/05/02 10:42:56;;;;;;;10.93;6.93;;;;;;;19.79;34.59;99462.13;8515283;27;20050;-72
2022/05/02 10:47:03;;;;;;;14.60;6.25;;;;;;;19.90;35.44;99456.06;8520612;27;20046;-74
2022/05/02 10:51:25;;;;;;;12.27;6.13;;;;;;;20.06;34.67;99465.00;8458396;27;20126;-73
2022/05/02 10:55:31;;;;;;;14.93;6.40;;;;;;;20.19;35.33;99458.19;8508382;27;20473;-72
2022/05/02 10:59:38;;;;;;;17.73;6.00;;;;;;;20.33;35.35;99458.47;8502407;27;20450;-73
2022/05/02 11:04:14;;;;;;;12.32;6.53;;;;;;;20.28;34.16;99449.72;8485493;27;20051;-73
2022/05/02 11:08:37;;;;;;;14.18;6.70;;;;;;;20.36;34.26;99445.97;8492694;27;20039;-72
2022/05/02 11:12:46;;;;;;;15.25;7.22;;;;;;;20.47;33.49;99458.72;8495423;27;20153;-72
2022/05/02 11:17:03;;;;;;;10.47;6.43;;;;;;;20.77;34.33;99449.81;8503459;27;20051;-71
2022/05/02 11:21:17;;;;;;;14.27;6.85;;;;;;;21.05;34.85;99439.25;8479540;27;20179;-72
2022/05/02 11:25:20;;;;;;;13.98;6.47;;;;;;;21.12;33.36;99439.34;8461944;27;20055;-71
2022/05/02 11:29:27;;;;;;;14.55;6.88;;;;;;;21.43;33.34;99436.28;8479332;27;20149;-72
2022/05/02 11:34:11;;;;;;;10.98;6.07;;;;;;;21.71;33.38;99426.81;8504698;27;20540;-71
2022/05/02 11:38:29;;;;;;;11.45;6.22;;;;;;;21.64;31.87;99443.22;8359507;28;20049;-72
2022/05/02 11:42:32;;;;;;;11.50;5.70;;;;;;;21.29;30.99;99433.34;8347360;28;20049;-72
2022/05/02 11:46:39;;;;;;;13.43;6.32;;;;;;;21.70;31.76;99427.97;8393119;28;20696;-72
2022/05/02 11:50:43;;;;;;;13.48;6.47;;;;;;;21.83;32.89;99419.13;8371398;28;20051;-72
2022/05/02 11:54:47;;;;;;;25.67;6.50;;;;;;;21.73;32.56;99419.00;8313099;28;20060;-73
2022/05/02 11:58:54;;;;;;;10.55;6.35;;;;;;;21.84;33.57;99419.88;8341305;28;20441;-72
2022/05/02 12:03:15;;;;;;;19.33;7.07;;;;;;;21.59;33.11;99418.81;8375754;28;20053;-72
2022/05/02 12:07:24;;;;;;;28.45;8.73;;;;;;;21.64;32.87;99404.72;8360189;28;20102;-72
2022/05/02 12:11:25;;;;;;;15.35;6.80;;;;;;;21.84;33.48;99408.88;8357426;28;20048;-72
2022/05/02 12:15:27;;;;;;;12.95;6.15;;;;;;;21.39;33.82;99410.72;8441265;28;20047;-71
2022/05/02 12:19:32;;;;;;;16.65;5.47;;;;;;;21.38;33.53;99398.16;8467834;27;20043;-72
2022/05/02 12:23:36;;;;;;;12.15;5.80;;;;;;;21.42;33.85;99388.00;8465150;27;20043;-73
2022/05/02 12:27:37;;;;;;;23.05;8.52;;;;;;;21.83;34.24;99385.34;8471130;27;20466;-73
2022/05/02 12:31:40;;;;;;;15.38;6.30;;;;;;;22.25;33.48;99391.28;8474291;27;20051;-73
2022/05/02 12:35:42;;;;;;;13.05;6.07;;;;;;;22.55;33.57;99387.59;8467254;27;20393;-73
2022/05/02 12:39:47;;;;;;;19.02;5.72;;;;;;;22.56;32.59;99378.16;8472926;27;20039;-72
2022/05/02 12:43:52;;;;;;;30.52;8.05;;;;;;;22.82;33.16;99375.22;8492978;27;20043;-72
2022/05/02 12:48:01;;;;;;;9.93;5.63;;;;;;;23.00;32.23;99376.09;8523982;27;20043;-73
2022/05/02 12:52:03;;;;;;;8.75;5.18;;;;;;;23.07;30.94;99369.84;8529501;27;20043;-72
2022/05/02 12:56:05;;;;;;;9.30;5.43;;;;;;;22.87;29.05;99372.09;8520642;27;20031;-72
2022/05/02 13:00:32;;;;;;;16.35;5.05;;;;;;;22.89;30.10;99368.97;8494888;27;20039;-72
2022/05/02 13:04:34;;;;;;;14.95;6.25;;;;;;;23.15;30.12;99361.25;8512048;27;20432;-72
2022/05/02 13:08:41;;;;;;;10.82;5.15;;;;;;;22.79;31.59;99364.97;8520380;27;20041;-72
2022/05/02 13:13:04;;;;;;;11.85;5.60;;;;;;;23.00;31.30;99359.56;8508106;27;20046;-72
2022/05/02 13:17:12;;;;;;;14.65;5.72;;;;;;;22.99;31.53;99352.50;8511570;27;20047;-72
2022/05/02 13:21:14;;;;;;;9.48;5.25;;;;;;;23.03;31.41;99353.31;8503612;27;20501;-72
2022/05/02 13:25:15;;;;;;;72.55;16.55;;;;;;;23.43;32.30;99343.22;8514777;27;20408;-72
2022/05/02 13:29:48;;;;;;;14.68;5.13;;;;;;;24.83;28.38;99352.06;8516108;27;20040;-72
2022/05/02 13:33:53;;;;;;;9.38;5.07;;;;;;;25.97;27.41;99335.78;8446466;27;20054;-72
2022/05/02 13:38:01;;;;;;;9.85;4.95;;;;;;;26.84;25.98;99343.75;8516546;27;20047;-73
2022/05/02 13:42:06;;;;;;;30.58;9.23;;;;;;;27.83;24.90;99350.88;8510403;27;20047;-72
2022/05/02 13:46:30;;;;;;;9.38;5.18;;;;;;;28.20;23.95;99332.50;8426038;27;20051;-72
2022/05/02 13:50:39;;;;;;;9.18;4.80;;;;;;;29.10;23.77;99344.41;8458292;27;20511;-72
2022/05/02 13:54:46;;;;;;;11.73;4.60;;;;;;;29.78;22.28;99333.44;8494222;28;20054;-72
2022/05/02 13:58:53;;;;;;;9.55;4.57;;;;;;;30.42;22.64;99327.13;8499174;27;20072;-72
2022/05/02 14:03:22;;;;;;;11.90;5.47;;;;;;;31.35;21.12;99320.63;8509718;27;20047;-72
2022/05/02 14:07:25;;;;;;;5.53;4.32;;;;;;;31.46;20.45;99321.06;8518514;27;20119;-73
2022/05/02 14:11:28;;;;;;;11.82;4.72;;;;;;;31.93;20.97;99323.25;8502143;27;20058;-73
2022/05/02 14:15:32;;;;;;;11.40;4.28;;;;;;;32.23;20.47;99322.69;8517138;27;20100;-73
2022/05/02 14:19:33;;;;;;;7.75;4.68;;;;;;;32.90;19.25;99325.19;8491515;27;20187;-73
2022/05/02 14:23:59;;;;;;;15.00;6.97;;;;;;;33.01;19.29;99319.97;8510584;27;20051;-73
2022/05/02 14:28:21;;;;;;;9.52;4.85;;;;;;;32.83;19.62;99308.66;8521283;27;20130;-73
2022/05/02 14:32:24;;;;;;;11.43;4.88;;;;;;;31.88;19.46;99307.06;8359338;28;20041;-73
2022/05/02 14:36:29;;;;;;;7.35;4.93;;;;;;;30.33;20.68;99301.88;8360409;28;20521;-73
2022/05/02 14:40:30;;;;;;;11.13;3.92;;;;;;;29.88;22.25;99298.19;8326744;28;20049;-72
2022/05/02 14:44:31;;;;;;;7.72;4.90;;;;;;;30.82;20.23;99304.59;8345384;28;20112;-74
2022/05/02 14:48:34;;;;;;;8.77;4.32;;;;;;;30.93;19.83;99300.28;8345618;28;20052;-73
2022/05/02 14:52:38;;;;;;;7.15;4.75;;;;;;;29.63;20.51;99299.56;8359683;28;20135;-72
2022/05/02 14:56:42;;;;;;;11.60;5.03;;;;;;;28.24;22.60;99294.34;8358516;28;20044;-72
2022/05/02 15:00:48;;;;;;;10.13;4.45;;;;;;;26.24;24.79;99286.97;8360050;28;20765;-72
2022/05/02 15:04:53;;;;;;;8.38;4.50;;;;;;;26.27;25.05;99283.41;8343753;28;20053;-72
2022/05/02 15:09:00;;;;;;;7.70;4.60;;;;;;;25.86;25.59;99285.28;8405114;27;20633;-73
2022/05/02 15:13:22;;;;;;;8.80;5.22;;;;;;;25.83;25.97;99275.03;8500170;27;20552;-72
2022/05/02 15:17:25;;;;;;;11.52;4.80;;;;;;;26.63;24.67;99278.28;8499199;27;20047;-73
2022/05/02 15:21:26;;;;;;;9.43;5.90;;;;;;;27.82;23.70;99279.94;8498804;27;20043;-73
2022/05/02 15:25:27;;;;;;;10.70;4.15;;;;;;;28.81;22.49;99281.03;8479025;27;20122;-72
2022/05/02 15:38:23;;;;;;;10.25;5.60;;;;;;;29.17;22.31;99266.41;8480653;27;20059;-72
2022/05/02 15:42:24;;;;;;;15.40;5.30;;;;;;;29.50;22.13;99262.53;8467842;27;20488;-72
2022/05/02 15:46:40;;;;;;;9.82;4.78;;;;;;;29.64;21.86;99253.84;8461816;27;20534;-73
2022/05/02 15:50:41;;;;;;;7.85;4.53;;;;;;;29.41;22.32;99253.97;8483689;27;20081;-74
2022/05/02 15:55:02;;;;;;;6.47;4.40;;;;;;;29.44;21.63;99247.56;8480827;27;20043;-73
2022/05/02 15:59:16;;;;;;;13.73;5.00;;;;;;;29.57;21.59;99245.63;8472482;27;20052;-73
2022/05/02 16:03:18;;;;;;;7.55;4.35;;;;;;;29.74;21.57;99244.44;8464363;28;20047;-72
2022/05/02 16:11:42;;;;;;;10.02;5.00;;;;;;;29.29;22.45;99235.16;8464657;27;20043;-72
2022/05/02 16:15:44;;;;;;;15.70;7.68;;;;;;;28.01;23.42;99243.16;8463491;28;20131;-72
2022/05/02 16:19:46;;;;;;;9.38;4.45;;;;;;;27.35;23.66;99236.63;8463450;28;20045;-72
2022/05/02 16:23:47;;;;;;;11.35;4.78;;;;;;;27.25;23.26;99241.91;8463315;28;20058;-72
2022/05/02 16:27:48;;;;;;;8.13;3.97;;;;;;;25.79;24.31;99227.25;8481985;27;20128;-72
2022/05/02 16:31:49;;;;;;;9.57;4.45;;;;;;;24.46;26.49;99233.81;8497001;27;20108;-73
2022/05/02 16:35:51;;;;;;;7.80;4.07;;;;;;;23.73;27.06;99225.19;8496300;27;20043;-72
2022/05/02 16:39:52;;;;;;;6.97;4.40;;;;;;;23.34;27.48;99235.34;8489144;27;20096;-74
2022/05/02 16:43:59;;;;;;;11.02;4.13;;;;;;;22.82;28.37;99218.28;8529036;27;20049;-73
2022/05/02 16:48:00;;;;;;;9.60;4.32;;;;;;;22.54;28.86;99209.84;8494771;27;20591;-72
2022/05/02 16:52:05;;;;;;;10.57;3.97;;;;;;;22.27;29.58;99221.09;8505452;27;20095;-72
2022/05/02 16:56:06;;;;;;;9.88;4.32;;;;;;;21.93;29.83;99225.16;8510682;27;20519;-73
2022/05/02 17:00:23;;;;;;;9.43;3.97;;;;;;;21.62;30.45;99226.50;8521360;27;20046;-73
2022/05/02 17:04:24;;;;;;;14.35;4.22;;;;;;;21.30;31.06;99220.69;8516664;27;20105;-72
2022/05/02 17:08:25;;;;;;;11.52;4.65;;;;;;;21.12;31.38;99219.66;8530147;27;20066;-72
2022/05/02 17:12:26;;;;;;;9.50;4.75;;;;;;;20.85;31.72;99220.91;8519491;27;20130;-73
2022/05/02 17:16:27;;;;;;;16.15;5.00;;;;;;;20.73;31.94;99223.94;8495957;27;20043;-72
2022/05/02 17:20:31;;;;;;;13.00;5.97;;;;;;;20.39;32.37;99221.13;8478598;27;20472;-72
2022/05/02 17:24:49;;;;;;;13.38;6.60;;;;;;;20.15;32.84;99224.25;8477479;27;20111;-72
2022/05/02 17:28:59;;;;;;;20.45;9.27;;;;;;;19.88;33.62;99228.16;8518611;27;20424;-72
2022/05/02 17:33:01;;;;;;;13.95;5.13;;;;;;;19.62;33.91;99232.41;8448307;27;20043;-73
2022/05/02 17:37:02;;;;;;;10.48;5.30;;;;;;;19.37;34.59;99231.16;8486671;27;20070;-72
2022/05/02 17:41:12;;;;;;;15.00;5.80;;;;;;;19.05;36.02;99235.25;8500186;27;20051;-73
2022/05/02 17:45:15;;;;;;;22.45;8.30;;;;;;;18.87;36.78;99232.97;8496252;27;20051;-73
2022/05/02 17:49:18;;;;;;;12.70;7.35;;;;;;;18.65;37.92;99233.69;8509100;27;20561;-73
2022/05/02 17:53:20;;;;;;;19.77;5.78;;;;;;;18.40;38.56;99232.34;8488575;27;20096;-73
2022/05/02 17:57:25;;;;;;;18.33;5.75;;;;;;;18.09;39.34;99233.97;8510782;27;20042;-72
2022/05/02 18:01:26;;;;;;;12.75;4.63;;;;;;;17.82;40.04;99245.03;8509708;27;20577;-73
2022/05/02 18:05:29;;;;;;;14.35;6.07;;;;;;;17.57;41.61;99234.22;8500728;27;20054;-73
2022/05/02 18:09:32;;;;;;;14.63;5.80;;;;;;;17.39;42.00;99243.13;8534943;27;20039;-73
2022/05/02 18:13:44;;;;;;;13.00;6.70;;;;;;;17.11;42.41;99243.94;8495854;27;20042;-72
2022/05/02 18:17:57;;;;;;;23.45;9.82;;;;;;;16.84;43.10;99239.28;8527733;27;20047;-73
2022/05/02 18:22:07;;;;;;;34.25;13.00;;;;;;;16.57;43.88;99240.00;8510573;27;20457;-72
2022/05/02 18:26:38;;;;;;;25.13;10.93;;;;;;;16.26;45.26;99246.88;8516504;27;20043;-72
2022/05/02 18:30:47;;;;;;;31.90;9.70;;;;;;;15.99;46.13;99240.22;8353337;28;20051;-72
2022/05/02 18:39:28;;;;;;;18.42;8.15;;;;;;;15.50;47.15;99254.88;8354972;28;20052;-72
2022/05/02 18:43:37;;;;;;;18.38;8.15;;;;;;;15.27;48.04;99254.50;8352812;28;20056;-72
2022/05/02 18:56:21;;;;;;;40.60;16.10;;;;;;;14.71;49.91;99264.09;8360861;28;20064;-72
2022/05/02 19:00:30;;;;;;;37.97;16.25;;;;;;;14.56;50.30;99268.22;8350492;28;20422;-72
2022/05/02 19:04:31;;;;;;;34.60;15.75;;;;;;;14.38;50.77;99272.19;8321778;27;20045;-72
2022/05/02 19:08:35;;;;;;;42.08;16.85;;;;;;;14.29;51.21;99268.69;8460184;27;20058;-72
2022/05/02 19:12:37;;;;;;;41.28;15.85;;;;;;;14.12;51.59;99266.06;8531335;27;20054;-72
2022/05/02 19:16:47;;;;;;;40.45;14.68;;;;;;;13.95;52.02;99266.97;8509239;27;20472;-72
2022/05/02 19:21:38;;;;;;;25.58;11.57;;;;;;;13.79;52.66;99274.84;8514629;27;20129;-71
2022/05/02 19:25:41;;;;;;;24.77;9.20;;;;;;;13.64;53.05;99275.38;8419467;28;20071;-71
2022/05/02 19:29:46;;;;;;;20.20;9.10;;;;;;;13.49;53.79;99273.19;8418582;28;20479;-71
2022/05/02 19:39:06;;;;;;;18.92;8.35;;;;;;;13.32;54.10;99257.78;8359316;28;20083;-71
2022/05/02 19:39:07;;;;;;;21.38;7.25;;;;;;;13.17;54.40;99276.44;8391708;28;20067;-71
2022/05/02 19:43:15;;;;;;;14.80;6.97;;;;;;;13.02;54.56;99275.00;8425992;28;20052;-72
2022/05/02 19:47:23;;;;;;;16.87;7.67;;;;;;;12.90;55.00;99272.91;8398002;28;20055;-71
2022/05/02 19:51:24;;;;;;;19.92;8.75;;;;;;;12.79;55.49;99268.97;8419244;28;20036;-71
2022/05/02 19:55:25;;;;;;;20.85;8.48;;;;;;;12.67;55.93;99274.22;8423114;28;20122;-72
2022/05/02 19:59:30;;;;;;;28.05;11.23;;;;;;;12.56;56.50;99275.63;8379096;27;20051;-71
2022/05/02 20:03:34;;;;;;;44.70;14.68;;;;;;;12.47;56.92;99270.22;8489487;27;20043;-72
2022/05/02 20:07:41;;;;;;;63.13;20.00;;;;;;;12.37;57.43;99280.56;8441172;27;20047;-71
2022/05/02 20:11:42;;;;;;;68.38;20.83;;;;;;;12.25;57.67;99279.25;8421731;27;20039;-71